AVA4849 SKBO-SKIB
Flight info
| Callsign | AVA4849 |
|---|---|
| Flight time | N/A |
| Altitude | 18000 |
| Route | SILEG5E SILEG SILEG3G |
| Aircraft | A320/M-SDE3FGHIRWY/LB1 |
Departure
| Time | 2026-05-06 18:27 |
|---|---|
| Airport | El Dorado International Airport (SKBO) |
Arrival
| Time | N/A |
|---|---|
| Airport | Perales Airport (SKIB) |
| Time | Latitude | Longitude | Altitude | Speed | Heading |
|---|---|---|---|---|---|
| 2026-05-06 18:12 | 4.69713 | -74.14617 | 8366 ft | 0 kts | 218° |
| 2026-05-06 18:17 | 4.69714 | -74.14616 | 8366 ft | 2 kts | 218° |
| 2026-05-06 18:17 | 4.69726 | -74.14606 | 8366 ft | 2 kts | 218° |
| 2026-05-06 18:17 | 4.69739 | -74.14596 | 8366 ft | 2 kts | 218° |
| 2026-05-06 18:17 | 4.69750 | -74.14583 | 8366 ft | 2 kts | 291° |
| 2026-05-06 18:18 | 4.69743 | -74.14571 | 8366 ft | 0 kts | 307° |
| 2026-05-06 18:19 | 4.69754 | -74.14586 | 8366 ft | 7 kts | 307° |
| 2026-05-06 18:19 | 4.69782 | -74.14623 | 8366 ft | 6 kts | 307° |
| 2026-05-06 18:20 | 4.69807 | -74.14656 | 8366 ft | 6 kts | 307° |
| 2026-05-06 18:20 | 4.69837 | -74.14696 | 8366 ft | 7 kts | 307° |
| 2026-05-06 18:20 | 4.69865 | -74.14734 | 8366 ft | 8 kts | 305° |
| 2026-05-06 18:20 | 4.69897 | -74.14780 | 8366 ft | 8 kts | 304° |
| 2026-05-06 18:21 | 4.69930 | -74.14825 | 8366 ft | 8 kts | 308° |
| 2026-05-06 18:21 | 4.69926 | -74.14879 | 8366 ft | 10 kts | 229° |
| 2026-05-06 18:21 | 4.69869 | -74.14922 | 8366 ft | 11 kts | 216° |
| 2026-05-06 18:21 | 4.69855 | -74.14980 | 8366 ft | 8 kts | 303° |
| 2026-05-06 18:22 | 4.69902 | -74.15040 | 8366 ft | 17 kts | 307° |
| 2026-05-06 18:22 | 4.69986 | -74.15151 | 8366 ft | 26 kts | 307° |
| 2026-05-06 18:22 | 4.70100 | -74.15301 | 8366 ft | 27 kts | 307° |
| 2026-05-06 18:22 | 4.70215 | -74.15452 | 8365 ft | 28 kts | 306° |
| 2026-05-06 18:23 | 4.70332 | -74.15606 | 8365 ft | 28 kts | 307° |
| 2026-05-06 18:23 | 4.70449 | -74.15761 | 8365 ft | 28 kts | 307° |
| 2026-05-06 18:23 | 4.70567 | -74.15917 | 8365 ft | 28 kts | 307° |
| 2026-05-06 18:23 | 4.70685 | -74.16074 | 8366 ft | 28 kts | 307° |
| 2026-05-06 18:24 | 4.70804 | -74.16231 | 8366 ft | 28 kts | 307° |
| 2026-05-06 18:24 | 4.70922 | -74.16387 | 8366 ft | 27 kts | 307° |
| 2026-05-06 18:24 | 4.71039 | -74.16541 | 8365 ft | 27 kts | 307° |
| 2026-05-06 18:24 | 4.71132 | -74.16664 | 8366 ft | 20 kts | 307° |
| 2026-05-06 18:25 | 4.71195 | -74.16750 | 8366 ft | 10 kts | 297° |
| 2026-05-06 18:25 | 4.71185 | -74.16807 | 8366 ft | 8 kts | 224° |
| 2026-05-06 18:25 | 4.71141 | -74.16838 | 8364 ft | 8 kts | 216° |
| 2026-05-06 18:25 | 4.71081 | -74.16881 | 8363 ft | 12 kts | 211° |
| 2026-05-06 18:26 | 4.71019 | -74.16874 | 8363 ft | 9 kts | 134° |
| 2026-05-06 18:26 | 4.70982 | -74.16826 | 8363 ft | 6 kts | 127° |
| 2026-05-06 18:26 | 4.70973 | -74.16814 | 8363 ft | 17 kts | 127° |
| 2026-05-06 18:26 | 4.70746 | -74.16513 | 8365 ft | 88 kts | 127° |
| 2026-05-06 18:27 | 4.70253 | -74.15859 | 8363 ft | 145 kts | 127° |
| 2026-05-06 18:27 | 4.69566 | -74.14952 | 8459 ft | 181 kts | 127° |
| 2026-05-06 18:27 | 4.68779 | -74.13907 | 9031 ft | 197 kts | 125° |
| 2026-05-06 18:27 | 4.67776 | -74.12974 | 9612 ft | 205 kts | 155° |
| 2026-05-06 18:28 | 4.66294 | -74.12883 | 9802 ft | 232 kts | 196° |
| 2026-05-06 18:28 | 4.64963 | -74.13880 | 10156 ft | 250 kts | 233° |
| 2026-05-06 18:28 | 4.64096 | -74.15410 | 10790 ft | 255 kts | 242° |
| 2026-05-06 18:28 | 4.63320 | -74.17019 | 11400 ft | 259 kts | 242° |
| 2026-05-06 18:29 | 4.62530 | -74.18653 | 12005 ft | 262 kts | 242° |
| 2026-05-06 18:29 | 4.61765 | -74.20295 | 12589 ft | 266 kts | 248° |
| 2026-05-06 18:29 | 4.61329 | -74.22135 | 12985 ft | 282 kts | 258° |
| 2026-05-06 18:29 | 4.60954 | -74.24141 | 13172 ft | 305 kts | 257° |
| 2026-05-06 18:30 | 4.60526 | -74.26305 | 13325 ft | 328 kts | 257° |
| 2026-05-06 18:30 | 4.60041 | -74.28617 | 13467 ft | 350 kts | 256° |
| 2026-05-06 18:30 | 4.59457 | -74.31069 | 13577 ft | 372 kts | 255° |
| 2026-05-06 18:30 | 4.58811 | -74.33619 | 13933 ft | 383 kts | 254° |
| 2026-05-06 18:31 | 4.58139 | -74.36222 | 14428 ft | 388 kts | 254° |
| 2026-05-06 18:31 | 4.57463 | -74.38858 | 14919 ft | 392 kts | 254° |
| 2026-05-06 18:31 | 4.56800 | -74.41486 | 15409 ft | 396 kts | 255° |
| 2026-05-06 18:31 | 4.56132 | -74.44175 | 15951 ft | 400 kts | 255° |
| 2026-05-06 18:32 | 4.55467 | -74.46886 | 16475 ft | 402 kts | 256° |
| 2026-05-06 18:32 | 4.54798 | -74.49623 | 16814 ft | 407 kts | 255° |
| 2026-05-06 18:32 | 4.54126 | -74.52362 | 16496 ft | 401 kts | 255° |
| 2026-05-06 18:32 | 4.53457 | -74.55074 | 15771 ft | 405 kts | 255° |
| 2026-05-06 18:33 | 4.52772 | -74.57833 | 14982 ft | 410 kts | 255° |
| 2026-05-06 18:33 | 4.52089 | -74.60587 | 14220 ft | 405 kts | 255° |
| 2026-05-06 18:33 | 4.51422 | -74.63275 | 13503 ft | 394 kts | 255° |
| 2026-05-06 18:33 | 4.50782 | -74.65862 | 13138 ft | 374 kts | 255° |
| 2026-05-06 18:34 | 4.50170 | -74.68341 | 12607 ft | 360 kts | 255° |
| 2026-05-06 18:34 | 4.49578 | -74.70731 | 12102 ft | 347 kts | 254° |
| 2026-05-06 18:34 | 4.49000 | -74.73060 | 11591 ft | 342 kts | 255° |
| 2026-05-06 18:34 | 4.48425 | -74.75378 | 11095 ft | 344 kts | 255° |
| 2026-05-06 18:35 | 4.47860 | -74.77658 | 10970 ft | 330 kts | 255° |
| 2026-05-06 18:35 | 4.47328 | -74.79808 | 10869 ft | 306 kts | 255° |
| 2026-05-06 18:35 | 4.46838 | -74.81782 | 10743 ft | 286 kts | 255° |
| 2026-05-06 18:35 | 4.46373 | -74.83652 | 10618 ft | 268 kts | 255° |
| 2026-05-06 18:36 | 4.45935 | -74.85418 | 10516 ft | 257 kts | 255° |
| 2026-05-06 18:36 | 4.45512 | -74.87120 | 10399 ft | 248 kts | 255° |
| 2026-05-06 18:36 | 4.45102 | -74.88766 | 10281 ft | 239 kts | 255° |
| 2026-05-06 18:36 | 4.44702 | -74.90368 | 10210 ft | 234 kts | 255° |
| 2026-05-06 18:37 | 4.44309 | -74.91944 | 10109 ft | 233 kts | 255° |
| 2026-05-06 18:37 | 4.44001 | -74.92972 | 10090 ft | 231 kts | 243° |
| 2026-05-06 18:37 | 4.42730 | -74.94643 | 9891 ft | 228 kts | 217° |
| 2026-05-06 18:37 | 4.41369 | -74.95435 | 9522 ft | 225 kts | 205° |
| 2026-05-06 18:38 | 4.39982 | -74.96127 | 9207 ft | 221 kts | 205° |
| 2026-05-06 18:38 | 4.38627 | -74.96806 | 8898 ft | 220 kts | 206° |
| 2026-05-06 18:38 | 4.37277 | -74.97485 | 8592 ft | 214 kts | 206° |
| 2026-05-06 18:38 | 4.35965 | -74.98145 | 8310 ft | 208 kts | 206° |
| 2026-05-06 18:39 | 4.34691 | -74.98787 | 8032 ft | 203 kts | 206° |
| 2026-05-06 18:39 | 4.33442 | -74.99418 | 7767 ft | 200 kts | 207° |
| 2026-05-06 18:39 | 4.32393 | -75.00302 | 7475 ft | 199 kts | 236° |
| 2026-05-06 18:40 | 4.32379 | -75.02942 | 6914 ft | 201 kts | 297° |
| 2026-05-06 18:40 | 4.33060 | -75.04123 | 6648 ft | 196 kts | 296° |
| 2026-05-06 18:40 | 4.33726 | -75.05297 | 6358 ft | 192 kts | 296° |
| 2026-05-06 18:40 | 4.34376 | -75.06444 | 6098 ft | 188 kts | 295° |
| 2026-05-06 18:41 | 4.35000 | -75.07548 | 6004 ft | 174 kts | 295° |
| 2026-05-06 18:41 | 4.35572 | -75.08554 | 6000 ft | 161 kts | 295° |
| 2026-05-06 18:41 | 4.36120 | -75.09523 | 6004 ft | 159 kts | 296° |
| 2026-05-06 18:41 | 4.36658 | -75.10479 | 6005 ft | 157 kts | 295° |
| 2026-05-06 18:42 | 4.37192 | -75.11428 | 6009 ft | 156 kts | 295° |
| 2026-05-06 18:42 | 4.37723 | -75.12374 | 6008 ft | 156 kts | 295° |
| 2026-05-06 18:42 | 4.38246 | -75.13304 | 6060 ft | 156 kts | 294° |
| 2026-05-06 18:42 | 4.38780 | -75.14254 | 6017 ft | 157 kts | 295° |
| 2026-05-06 18:43 | 4.39322 | -75.15219 | 5761 ft | 162 kts | 295° |
| 2026-05-06 18:43 | 4.39883 | -75.16217 | 5368 ft | 164 kts | 294° |
| 2026-05-06 18:43 | 4.40440 | -75.17202 | 5048 ft | 161 kts | 294° |
| 2026-05-06 18:43 | 4.41008 | -75.18153 | 4741 ft | 160 kts | 306° |
| 2026-05-06 18:44 | 4.41918 | -75.18790 | 4566 ft | 163 kts | 340° |
| 2026-05-06 18:44 | 4.43038 | -75.18841 | 4368 ft | 162 kts | 18° |
| 2026-05-06 18:44 | 4.43985 | -75.18309 | 4210 ft | 159 kts | 47° |
| 2026-05-06 18:44 | 4.44520 | -75.17360 | 4043 ft | 155 kts | 81° |
| 2026-05-06 18:45 | 4.44497 | -75.16320 | 3866 ft | 149 kts | 110° |
| 2026-05-06 18:45 | 4.43997 | -75.15466 | 3701 ft | 139 kts | 134° |
| 2026-05-06 18:45 | 4.43358 | -75.14736 | 3422 ft | 140 kts | 134° |
| 2026-05-06 18:45 | 4.42934 | -75.14250 | 3251 ft | 139 kts | 134° |
| 2026-05-06 18:46 | 4.42305 | -75.13537 | 3057 ft | 129 kts | 135° |
| 2026-05-06 18:46 | 4.41482 | -75.12585 | 3503 ft | 162 kts | 133° |
| 2026-05-06 18:46 | 4.40801 | -75.11737 | 4583 ft | 130 kts | 130° |
| 2026-05-06 18:46 | 4.40426 | -75.11146 | 5549 ft | 110 kts | 90° |
| 2026-05-06 18:47 | 4.40880 | -75.10321 | 2790 ft | 181 kts | 46° |